Time;durP1;ratioP1;P1;durP2;ratioP2;P2;SDS_P1;SDS_P2;PMS_P1;PMS_P2;Temp;Humidity;BMP_temperature;BMP_pressure;BME280_temperature;BME280_humidity;BME280_pressure;Samples;Min_cycle;Max_cycle;Signal;HPM_P1;HPM_P2
2021/10/23 00:02:09;;;;;;;35.30;20.55;;;11.70;65.20;;;;;;5073941;28;20063;-75
2021/10/23 00:04:35;;;;;;;37.25;21.00;;;11.70;65.60;;;;;;5102432;28;20145;-74
2021/10/23 00:07:00;;;;;;;36.63;21.63;;;11.60;65.90;;;;;;5073976;28;20401;-74
2021/10/23 00:09:26;;;;;;;28.77;19.15;;;11.60;66.50;;;;;;5069243;28;20558;-75
2021/10/23 00:11:52;;;;;;;37.53;20.60;;;11.50;66.80;;;;;;5101671;28;20050;-74
2021/10/23 00:14:18;;;;;;;31.88;19.10;;;11.50;66.60;;;;;;5073558;28;20124;-74
2021/10/23 00:16:43;;;;;;;38.53;21.23;;;11.50;66.50;;;;;;5083472;28;20028;-74
2021/10/23 00:19:09;;;;;;;32.97;21.38;;;11.50;66.80;;;;;;5080303;28;20071;-74
2021/10/23 00:21:35;;;;;;;36.92;20.17;;;11.40;67.00;;;;;;5074418;28;20029;-74
2021/10/23 00:24:00;;;;;;;33.55;18.98;;;11.30;67.10;;;;;;5065232;28;20032;-74
2021/10/23 00:26:26;;;;;;;33.47;19.77;;;11.20;67.00;;;;;;5103535;28;20108;-74
2021/10/23 00:28:52;;;;;;;39.45;23.33;;;11.20;67.00;;;;;;5085483;28;20040;-74
2021/10/23 00:31:18;;;;;;;33.75;20.23;;;11.30;67.30;;;;;;5069742;28;20028;-74
2021/10/23 00:33:43;;;;;;;35.38;20.50;;;11.20;67.40;;;;;;5074202;28;20032;-74
2021/10/23 00:36:09;;;;;;;29.25;17.70;;;11.20;67.50;;;;;;5088584;28;20387;-75
2021/10/23 00:38:35;;;;;;;29.73;17.55;;;11.10;67.50;;;;;;5085513;28;20039;-74
2021/10/23 00:41:00;;;;;;;32.55;20.77;;;11.10;67.60;;;;;;5076336;28;20074;-74
2021/10/23 00:43:26;;;;;;;32.45;19.80;;;11.10;67.80;;;;;;5067956;28;20025;-74
2021/10/23 00:45:52;;;;;;;29.08;19.08;;;11.10;67.90;;;;;;5077445;28;20027;-74
2021/10/23 00:48:17;;;;;;;34.85;22.15;;;11.00;68.00;;;;;;5074090;28;20055;-75
2021/10/23 00:50:46;;;;;;;40.47;23.30;;;11.00;68.00;;;;;;5077245;28;20034;-74
2021/10/23 00:53:13;;;;;;;41.65;24.13;;;11.00;68.40;;;;;;5077327;28;20078;-75
2021/10/23 00:55:40;;;;;;;41.05;22.83;;;10.90;68.60;;;;;;5089169;28;20024;-74
2021/10/23 00:58:06;;;;;;;37.45;21.58;;;10.90;68.70;;;;;;5093329;28;20028;-74
2021/10/23 01:00:31;;;;;;;38.55;23.92;;;10.90;68.60;;;;;;5088119;28;20048;-74
2021/10/23 01:02:57;;;;;;;35.95;22.02;;;10.80;69.00;;;;;;5087128;28;20035;-74
2021/10/23 01:05:23;;;;;;;32.92;21.55;;;10.80;69.20;;;;;;5087493;28;20028;-75
2021/10/23 01:07:50;;;;;;;37.35;21.95;;;10.70;69.00;;;;;;5076933;28;20516;-75
2021/10/23 01:10:16;;;;;;;31.90;19.45;;;10.80;69.10;;;;;;5073531;28;20075;-75
2021/10/23 01:12:43;;;;;;;32.67;19.83;;;10.80;68.70;;;;;;5087086;28;20063;-74
2021/10/23 01:15:29;;;;;;;31.65;20.48;;;10.80;68.40;;;;;;5093263;28;20055;-74
2021/10/23 01:17:56;;;;;;;;;;;10.90;68.30;;;;;;5066233;28;20533;-74
2021/10/23 01:20:23;;;;;;;33.28;19.67;;;10.90;68.00;;;;;;5093225;28;20003;-74
2021/10/23 01:22:50;;;;;;;30.05;19.33;;;10.90;67.90;;;;;;5088667;28;20083;-75
2021/10/23 01:25:16;;;;;;;27.55;17.33;;;11.00;67.90;;;;;;5087313;28;20038;-74
2021/10/23 01:27:42;;;;;;;29.20;16.52;;;11.00;67.80;;;;;;5087889;28;20044;-75
2021/10/23 01:30:10;;;;;;;29.88;18.58;;;11.00;67.60;;;;;;5087366;28;20397;-74
2021/10/23 01:32:37;;;;;;;30.13;17.92;;;11.00;67.60;;;;;;5107022;28;20027;-78
2021/10/23 01:35:04;;;;;;;35.30;18.92;;;11.10;67.60;;;;;;5085970;28;20390;-76
2021/10/23 01:37:49;;;;;;;35.03;19.20;;;11.10;67.40;;;;;;5099242;28;20028;-76
2021/10/23 01:40:21;;;;;;;35.20;19.90;;;11.10;67.40;;;;;;5110993;28;20034;-77
2021/10/23 01:42:46;;;;;;;33.80;19.67;;;11.10;67.60;;;;;;5073055;28;20384;-77
2021/10/23 01:45:13;;;;;;;34.78;20.13;;;11.10;67.70;;;;;;5074944;28;20020;-76
2021/10/23 01:47:40;;;;;;;34.28;19.00;;;11.00;68.00;;;;;;5075958;28;20025;-76
2021/10/23 01:50:12;;;;;;;32.60;18.73;;;11.00;68.20;;;;;;5076135;28;20109;-77
2021/10/23 01:52:39;;;;;;;32.78;19.25;;;11.00;68.30;;;;;;5078210;28;20060;-76
2021/10/23 01:55:05;;;;;;;33.40;20.58;;;11.00;68.10;;;;;;5115159;28;20406;-76
2021/10/23 01:57:30;;;;;;;38.65;21.05;;;11.00;68.10;;;;;;5082526;28;20039;-76
2021/10/23 01:59:56;;;;;;;34.90;20.13;;;11.10;68.20;;;;;;5100473;28;20019;-78
2021/10/23 02:02:22;;;;;;;37.33;21.00;;;11.00;68.10;;;;;;5085239;28;20355;-76
2021/10/23 02:04:47;;;;;;;39.72;22.02;;;11.00;68.00;;;;;;5076675;28;20027;-76
2021/10/23 02:07:13;;;;;;;77.53;32.50;;;11.10;68.00;;;;;;5076645;28;20478;-76
2021/10/23 02:09:39;;;;;;;58.83;27.63;;;11.00;67.90;;;;;;5094824;28;20043;-76
2021/10/23 02:12:06;;;;;;;42.20;23.98;;;11.00;68.00;;;;;;5112340;28;20028;-77
2021/10/23 02:14:31;;;;;;;37.85;21.92;;;11.10;68.00;;;;;;5083366;28;20437;-76
2021/10/23 02:16:57;;;;;;;38.35;23.02;;;11.00;68.00;;;;;;5081844;28;20016;-77
2021/10/23 02:19:23;;;;;;;53.83;30.35;;;11.00;68.20;;;;;;5102800;28;20123;-77
2021/10/23 02:21:48;;;;;;;50.28;28.25;;;10.90;68.30;;;;;;5094555;28;20039;-76
2021/10/23 02:24:14;;;;;;;43.28;23.60;;;10.90;68.40;;;;;;5086810;28;20027;-76
2021/10/23 02:26:40;;;;;;;34.42;20.38;;;10.80;68.80;;;;;;5093756;28;20032;-77
2021/10/23 02:29:06;;;;;;;31.60;21.23;;;10.80;68.80;;;;;;5090457;28;20031;-77
2021/10/23 02:31:32;;;;;;;34.63;20.50;;;10.80;69.40;;;;;;5076544;28;20024;-76
2021/10/23 02:33:57;;;;;;;31.77;20.45;;;10.90;68.80;;;;;;5095677;28;20103;-77
2021/10/23 02:36:23;;;;;;;33.83;20.70;;;10.80;68.60;;;;;;5076130;28;20166;-76
2021/10/23 02:38:49;;;;;;;32.35;20.40;;;10.90;68.50;;;;;;5094151;28;20078;-77
2021/10/23 02:41:17;;;;;;;34.70;21.67;;;10.90;68.40;;;;;;5088420;28;20360;-77
2021/10/23 02:43:43;;;;;;;38.20;20.70;;;10.90;68.40;;;;;;5074484;28;20392;-76
2021/10/23 02:46:08;;;;;;;33.45;20.45;;;10.90;68.40;;;;;;5073581;28;20131;-76
2021/10/23 02:48:34;;;;;;;34.00;21.00;;;10.90;68.50;;;;;;5073348;28;20044;-76
2021/10/23 02:51:00;;;;;;;35.53;22.08;;;10.80;68.40;;;;;;5081861;28;20103;-76
2021/10/23 02:53:26;;;;;;;35.22;21.58;;;10.80;68.70;;;;;;5084593;28;20036;-77
2021/10/23 02:55:51;;;;;;;39.42;20.30;;;10.70;69.00;;;;;;5099764;28;20028;-76
2021/10/23 02:58:17;;;;;;;36.88;21.80;;;10.50;69.20;;;;;;5075185;28;20048;-76
2021/10/23 03:00:43;;;;;;;42.97;25.05;;;10.40;69.60;;;;;;5093493;28;20020;-77
2021/10/23 03:03:08;;;;;;;43.58;25.38;;;10.20;69.80;;;;;;5074962;28;20031;-76
2021/10/23 03:05:35;;;;;;;41.70;24.13;;;10.20;70.20;;;;;;5075381;28;20073;-76
2021/10/23 03:08:01;;;;;;;52.75;25.95;;;10.10;70.70;;;;;;5075199;28;20055;-76
2021/10/23 03:10:26;;;;;;;42.42;24.17;;;10.10;70.90;;;;;;5087113;28;20497;-76
2021/10/23 03:12:52;;;;;;;47.65;26.33;;;10.10;70.70;;;;;;5075784;28;20028;-76
2021/10/23 03:15:18;;;;;;;53.17;27.27;;;10.20;71.60;;;;;;5072172;28;20039;-77
2021/10/23 03:17:43;;;;;;;46.60;27.55;;;10.10;71.30;;;;;;5085566;28;20056;-76
2021/10/23 03:20:10;;;;;;;46.03;24.20;;;10.10;71.30;;;;;;5075285;28;20035;-76
2021/10/23 03:22:35;;;;;;;40.58;24.67;;;10.10;71.40;;;;;;5074779;28;20486;-75
2021/10/23 03:25:01;;;;;;;46.08;26.38;;;10.20;71.70;;;;;;5084798;28;20059;-76
2021/10/23 03:27:27;;;;;;;46.13;25.38;;;10.20;71.30;;;;;;5075934;28;20029;-75
2021/10/23 03:29:53;;;;;;;43.45;25.02;;;10.20;71.50;;;;;;5075294;28;20032;-76
2021/10/23 03:32:19;;;;;;;46.35;25.92;;;10.20;72.10;;;;;;5082768;28;20165;-77
2021/10/23 03:34:45;;;;;;;47.97;26.15;;;10.20;72.00;;;;;;5067248;28;20057;-75
2021/10/23 03:37:11;;;;;;;50.75;26.42;;;10.20;71.70;;;;;;5093087;28;20101;-76
2021/10/23 03:39:38;;;;;;;43.10;25.00;;;10.20;71.50;;;;;;5067683;28;20033;-76
2021/10/23 03:42:04;;;;;;;45.10;23.67;;;10.10;71.30;;;;;;5067376;28;20024;-75
2021/10/23 03:44:29;;;;;;;46.72;24.40;;;10.10;71.00;;;;;;5078318;28;20024;-76
2021/10/23 03:46:55;;;;;;;58.25;31.95;;;10.10;70.70;;;;;;5093085;28;20110;-76
2021/10/23 03:49:21;;;;;;;56.33;31.05;;;10.00;70.30;;;;;;5085684;28;20036;-76
2021/10/23 03:51:46;;;;;;;47.10;27.58;;;10.00;70.20;;;;;;5081615;28;20473;-76
2021/10/23 03:54:12;;;;;;;45.17;29.50;;;9.90;70.20;;;;;;5098049;28;20032;-78
2021/10/23 03:56:38;;;;;;;34.47;24.08;;;9.90;70.30;;;;;;5074787;28;20462;-75
2021/10/23 03:59:04;;;;;;;38.17;23.17;;;9.90;70.30;;;;;;5092862;28;20431;-75
2021/10/23 04:01:29;;;;;;;31.65;17.70;;;9.90;70.30;;;;;;5095871;28;20024;-76
2021/10/23 04:03:55;;;;;;;34.08;19.20;;;10.00;70.20;;;;;;5079783;28;20073;-89
2021/10/23 04:06:21;;;;;;;30.92;18.08;;;10.00;70.10;;;;;;5096399;28;20069;-75
2021/10/23 04:08:46;;;;;;;32.58;18.40;;;9.90;70.10;;;;;;5074590;28;20120;-76
2021/10/23 04:11:12;;;;;;;32.20;18.23;;;9.80;70.30;;;;;;5080051;28;20036;-78
2021/10/23 04:13:38;;;;;;;34.13;22.10;;;9.80;70.60;;;;;;5082119;28;20032;-76
2021/10/23 04:16:03;;;;;;;33.20;21.27;;;9.90;70.90;;;;;;5104554;28;20020;-76
2021/10/23 04:18:29;;;;;;;37.90;24.55;;;9.90;71.00;;;;;;5082359;28;20036;-78
2021/10/23 04:20:55;;;;;;;35.20;21.15;;;9.90;70.90;;;;;;5112305;28;20016;-76
2021/10/23 04:23:20;;;;;;;37.10;24.13;;;9.90;71.00;;;;;;5078729;28;20024;-76
2021/10/23 04:25:46;;;;;;;45.75;26.85;;;9.90;70.90;;;;;;5096741;28;20475;-76
2021/10/23 04:28:12;;;;;;;46.92;29.20;;;9.90;70.80;;;;;;5096310;28;20032;-76
2021/10/23 04:30:37;;;;;;;50.95;33.35;;;9.90;70.80;;;;;;5098241;28;20031;-76
2021/10/23 04:33:03;;;;;;;49.97;29.83;;;10.00;70.70;;;;;;5079983;28;20024;-72
2021/10/23 04:35:29;;;;;;;50.80;31.33;;;9.90;70.70;;;;;;5097921;28;20035;-73
2021/10/23 04:37:55;;;;;;;48.47;31.27;;;9.90;70.80;;;;;;5091693;28;20039;-77
2021/10/23 04:40:20;;;;;;;43.65;28.83;;;9.90;70.80;;;;;;5077467;28;20020;-77
2021/10/23 04:42:46;;;;;;;42.78;26.33;;;9.90;70.80;;;;;;5087893;28;20096;-78
2021/10/23 04:45:12;;;;;;;40.10;23.60;;;9.90;71.40;;;;;;5072679;28;20406;-76
2021/10/23 04:47:37;;;;;;;40.75;24.83;;;9.90;70.70;;;;;;5081605;28;20093;-76
2021/10/23 04:50:04;;;;;;;53.13;29.10;;;9.90;70.70;;;;;;5075773;28;20546;-81
2021/10/23 04:52:29;;;;;;;48.92;29.75;;;9.90;70.60;;;;;;5088968;28;20102;-79
2021/10/23 04:54:55;;;;;;;49.97;28.73;;;9.90;70.60;;;;;;5089635;28;20436;-81
2021/10/23 04:57:21;;;;;;;47.65;28.33;;;9.90;70.60;;;;;;5087164;28;20073;-81
2021/10/23 04:59:46;;;;;;;53.63;29.58;;;9.80;70.90;;;;;;5091882;28;20087;-82
2021/10/23 05:02:12;;;;;;;39.55;24.65;;;9.70;71.10;;;;;;5068619;28;20028;-81
2021/10/23 05:04:38;;;;;;;42.72;25.33;;;9.60;71.20;;;;;;5074951;28;20052;-81
2021/10/23 05:07:03;;;;;;;42.15;23.00;;;9.40;71.60;;;;;;5070291;28;20044;-80
2021/10/23 05:09:29;;;;;;;29.77;19.13;;;9.40;72.00;;;;;;5077451;28;20036;-80
2021/10/23 05:11:55;;;;;;;39.00;20.95;;;9.40;72.00;;;;;;5069166;28;20383;-80
2021/10/23 05:14:21;;;;;;;36.40;20.40;;;9.40;72.00;;;;;;5085437;28;20028;-80
2021/10/23 05:16:47;;;;;;;38.88;21.23;;;9.40;72.00;;;;;;5073727;28;20036;-81
2021/10/23 05:19:13;;;;;;;46.92;22.02;;;9.40;71.90;;;;;;5076074;28;20111;-80
2021/10/23 05:21:39;;;;;;;37.38;19.08;;;9.40;71.90;;;;;;5077490;28;20123;-80
2021/10/23 05:24:05;;;;;;;45.70;24.23;;;9.40;71.80;;;;;;5074918;28;20052;-81
2021/10/23 05:26:30;;;;;;;40.83;23.52;;;9.50;71.70;;;;;;5076123;28;20052;-81
2021/10/23 05:28:56;;;;;;;111.03;45.15;;;9.60;71.70;;;;;;5074736;28;20028;-81
2021/10/23 05:31:22;;;;;;;137.18;51.75;;;9.80;71.50;;;;;;5076652;28;20394;-81
2021/10/23 05:33:47;;;;;;;115.47;47.97;;;10.00;71.10;;;;;;5080646;28;20032;-83
2021/10/23 05:36:13;;;;;;;89.03;37.08;;;10.20;70.70;;;;;;5078539;28;20028;-80
2021/10/23 05:38:39;;;;;;;96.57;39.05;;;10.30;70.40;;;;;;5093240;28;20434;-80
2021/10/23 05:41:05;;;;;;;98.90;39.72;;;10.60;70.50;;;;;;5074620;28;20382;-80
2021/10/23 05:43:31;;;;;;;140.90;74.40;;;11.20;71.00;;;;;;5077968;28;20120;-81
2021/10/23 05:45:56;;;;;;;128.80;67.53;;;11.90;68.80;;;;;;5074320;28;21794;-82
2021/10/23 05:48:22;;;;;;;104.10;53.22;;;12.30;66.90;;;;;;5077646;28;20108;-81
2021/10/23 05:50:48;;;;;;;59.50;36.13;;;12.60;65.70;;;;;;5076611;28;20036;-82
2021/10/23 05:53:14;;;;;;;77.82;43.30;;;12.80;65.40;;;;;;5074500;28;20081;-81
2021/10/23 05:55:40;;;;;;;102.88;56.88;;;12.90;64.80;;;;;;5068937;28;20020;-81
2021/10/23 05:58:07;;;;;;;85.45;48.55;;;12.80;64.20;;;;;;5076273;28;20021;-82
2021/10/23 06:00:35;;;;;;;64.70;36.70;;;12.70;64.50;;;;;;5074566;28;20043;-82
2021/10/23 06:03:02;;;;;;;51.17;28.50;;;12.40;65.60;;;;;;5076941;28;20145;-82
2021/10/23 06:05:29;;;;;;;52.35;28.92;;;12.30;65.60;;;;;;5067621;28;20382;-81
2021/10/23 06:07:55;;;;;;;33.13;20.33;;;12.20;66.30;;;;;;5076383;28;20084;-81
2021/10/23 06:10:22;;;;;;;28.85;16.13;;;12.20;66.60;;;;;;5074716;28;20030;-81
2021/10/23 06:12:47;;;;;;;24.73;14.60;;;12.30;65.90;;;;;;5069957;28;20028;-80
2021/10/23 06:15:13;;;;;;;23.90;13.77;;;12.50;65.10;;;;;;5076277;28;20359;-80
2021/10/23 06:17:40;;;;;;;23.00;14.32;;;12.60;64.40;;;;;;5081838;28;20407;-80
2021/10/23 06:20:06;;;;;;;24.92;15.13;;;12.70;63.90;;;;;;5083025;28;20024;-79
2021/10/23 06:22:32;;;;;;;27.42;15.57;;;12.60;63.60;;;;;;5062261;28;20032;-79
2021/10/23 06:24:58;;;;;;;33.88;15.63;;;12.60;63.50;;;;;;5093348;28;20024;-80
2021/10/23 06:27:24;;;;;;;29.40;15.45;;;12.40;63.40;;;;;;5069165;28;20111;-80
2021/10/23 06:29:50;;;;;;;26.20;15.45;;;12.20;63.80;;;;;;5083186;28;20052;-80
2021/10/23 06:32:16;;;;;;;25.02;15.57;;;12.00;64.20;;;;;;5089918;28;20055;-79
2021/10/23 06:34:42;;;;;;;27.25;16.27;;;11.90;64.80;;;;;;5063941;28;20024;-77
2021/10/23 06:37:09;;;;;;;27.42;16.63;;;11.70;65.30;;;;;;5108915;27;20035;-81
2021/10/23 06:39:36;;;;;;;36.25;18.20;;;11.50;65.90;;;;;;5093843;28;20065;-75
2021/10/23 06:42:02;;;;;;;33.35;18.13;;;11.40;66.60;;;;;;5057087;28;20111;-77
2021/10/23 06:44:28;;;;;;;42.10;20.90;;;11.40;66.80;;;;;;5064784;28;20016;-77
2021/10/23 06:46:54;;;;;;;38.47;19.90;;;11.40;67.10;;;;;;5089075;28;20024;-79
2021/10/23 06:49:19;;;;;;;30.63;16.00;;;11.40;67.50;;;;;;5071400;28;20093;-80
2021/10/23 06:51:45;;;;;;;23.25;12.98;;;11.60;67.50;;;;;;5092510;28;20017;-78
2021/10/23 06:54:11;;;;;;;23.77;13.18;;;11.70;67.00;;;;;;5079574;28;20012;-75
2021/10/23 06:56:37;;;;;;;25.30;15.27;;;11.80;66.40;;;;;;5063138;28;20025;-76
2021/10/23 06:59:03;;;;;;;30.17;16.05;;;11.80;66.10;;;;;;5078279;28;20020;-76
2021/10/23 07:01:29;;;;;;;28.92;16.40;;;11.80;66.20;;;;;;5088104;28;20077;-75
2021/10/23 07:03:55;;;;;;;28.00;16.73;;;11.80;66.40;;;;;;5064832;28;20020;-78
2021/10/23 07:06:21;;;;;;;30.52;16.63;;;11.80;66.30;;;;;;5077416;28;20595;-88
2021/10/23 07:08:47;;;;;;;25.58;15.55;;;11.80;66.20;;;;;;5062441;28;20032;-77
2021/10/23 07:11:12;;;;;;;22.20;13.30;;;11.80;66.30;;;;;;5092832;28;20024;-79
2021/10/23 07:13:38;;;;;;;22.15;12.48;;;11.70;66.30;;;;;;5058671;28;20028;-74
2021/10/23 07:16:04;;;;;;;21.98;11.68;;;11.70;65.90;;;;;;5078744;28;20035;-74
2021/10/23 07:18:30;;;;;;;22.65;12.15;;;11.70;65.70;;;;;;5078165;28;20027;-74
2021/10/23 07:20:56;;;;;;;19.55;11.82;;;11.70;65.70;;;;;;5071167;28;20123;-72
2021/10/23 07:23:21;;;;;;;20.35;11.18;;;11.70;65.90;;;;;;5081133;28;20066;-72
2021/10/23 07:25:47;;;;;;;21.48;13.57;;;11.70;66.30;;;;;;5098086;28;20100;-72
2021/10/23 07:28:14;;;;;;;18.92;11.25;;;11.70;66.40;;;;;;5059014;28;20032;-75
2021/10/23 07:30:40;;;;;;;21.17;11.05;;;11.70;66.30;;;;;;5058869;28;20115;-72
2021/10/23 07:33:06;;;;;;;22.70;12.73;;;11.70;66.40;;;;;;5081442;28;20028;-73
2021/10/23 07:35:31;;;;;;;22.55;12.48;;;11.60;66.40;;;;;;5060158;28;20033;-76
2021/10/23 07:37:57;;;;;;;23.83;12.98;;;11.60;66.80;;;;;;5087784;28;20517;-77
2021/10/23 07:40:23;;;;;;;21.13;12.65;;;11.60;67.20;;;;;;5067471;28;20344;-75
2021/10/23 07:42:48;;;;;;;21.45;12.55;;;11.60;67.70;;;;;;5070282;28;20032;-79
2021/10/23 07:45:14;;;;;;;20.23;12.30;;;11.60;67.80;;;;;;5080866;28;20533;-79
2021/10/23 07:47:44;;;;;;;22.13;12.70;;;11.70;67.40;;;;;;5092716;28;20031;-73
2021/10/23 07:50:11;;;;;;;23.15;12.23;;;11.70;66.80;;;;;;5074043;28;20055;-74
2021/10/23 07:52:38;;;;;;;22.10;13.38;;;11.80;66.30;;;;;;5074311;28;20039;-78
2021/10/23 07:55:06;;;;;;;22.42;12.63;;;11.80;66.00;;;;;;5090907;28;20099;-78
2021/10/23 07:57:31;;;;;;;23.63;13.05;;;11.80;66.00;;;;;;5073648;28;20042;-75
2021/10/23 07:59:57;;;;;;;21.95;13.77;;;11.90;66.20;;;;;;5092022;28;20028;-74
2021/10/23 08:02:23;;;;;;;23.88;12.57;;;11.80;66.30;;;;;;5094368;28;20028;-82
2021/10/23 08:04:50;;;;;;;23.02;12.85;;;11.90;66.00;;;;;;5077566;28;20515;-82
2021/10/23 08:07:16;;;;;;;19.83;11.80;;;12.00;65.70;;;;;;5068745;28;20043;-81
2021/10/23 08:09:42;;;;;;;18.23;11.90;;;12.10;65.90;;;;;;5077218;28;20541;-83
2021/10/23 08:12:08;;;;;;;19.98;11.48;;;12.20;64.80;;;;;;5073655;28;20028;-81
2021/10/23 08:14:35;;;;;;;25.63;12.15;;;12.20;64.30;;;;;;5070870;28;20035;-81
2021/10/23 08:17:01;;;;;;;18.45;11.60;;;12.30;63.90;;;;;;5073779;28;20031;-80
2021/10/23 08:19:27;;;;;;;18.48;11.23;;;12.30;63.80;;;;;;5064911;28;20080;-78
2021/10/23 08:21:52;;;;;;;19.25;11.10;;;12.40;63.60;;;;;;5083068;28;20029;-79
2021/10/23 08:24:18;;;;;;;20.65;12.13;;;12.70;63.30;;;;;;5067424;28;20157;-77
2021/10/23 08:26:44;;;;;;;17.90;10.45;;;13.10;63.10;;;;;;5086147;28;20040;-77
2021/10/23 08:29:50;;;;;;;19.70;10.80;;;13.60;62.20;;;;;;5085381;28;20068;-77
2021/10/23 08:32:17;;;;;;;17.90;10.85;;;14.00;60.20;;;;;;5089931;28;20462;-76
2021/10/23 08:34:43;;;;;;;19.48;10.45;;;14.10;59.60;;;;;;5066802;28;20077;-78
2021/10/23 08:37:11;;;;;;;21.52;11.07;;;14.70;59.40;;;;;;5074582;28;20027;-79
2021/10/23 08:39:37;;;;;;;18.77;10.77;;;15.70;58.60;;;;;;5072123;28;20043;-79
2021/10/23 08:42:04;;;;;;;19.33;10.70;;;17.10;56.60;;;;;;5069821;28;20103;-79
2021/10/23 08:44:31;;;;;;;19.42;10.07;;;18.00;53.60;;;;;;5084806;28;20058;-78
2021/10/23 08:46:58;;;;;;;14.20;8.68;;;18.10;51.30;;;;;;5089220;28;20025;-75
2021/10/23 08:49:24;;;;;;;13.05;8.38;;;17.90;49.90;;;;;;5092292;28;20051;-77
2021/10/23 08:51:51;;;;;;;15.18;9.32;;;17.40;49.70;;;;;;5067039;28;20028;-76
2021/10/23 08:54:17;;;;;;;15.60;7.40;;;17.00;49.80;;;;;;5076273;28;20359;-76
2021/10/23 08:56:43;;;;;;;11.57;5.45;;;16.70;50.00;;;;;;5092263;28;20024;-77
2021/10/23 08:59:09;;;;;;;11.73;5.50;;;16.50;49.80;;;;;;5104284;28;20031;-76
2021/10/23 09:01:34;;;;;;;12.55;5.60;;;16.30;49.40;;;;;;5066530;28;20027;-78
2021/10/23 09:04:00;;;;;;;14.02;5.90;;;16.20;49.20;;;;;;5087740;28;20035;-78
2021/10/23 09:06:38;;;;;;;14.27;6.82;;;16.00;49.70;;;;;;5074149;28;20028;-78
2021/10/23 09:09:12;;;;;;;13.35;6.05;;;16.00;49.50;;;;;;5068320;28;20036;-78
2021/10/23 09:11:44;;;;;;;15.07;6.63;;;15.80;49.60;;;;;;5084730;28;20028;-77
2021/10/23 09:14:38;;;;;;;15.18;6.10;;;15.60;49.70;;;;;;5087796;28;20482;-77
2021/10/23 09:17:12;;;;;;;12.50;5.70;;;15.30;49.90;;;;;;5071675;28;20017;-75
2021/10/23 09:19:39;;;;;;;8.75;5.15;;;15.20;50.40;;;;;;5057423;28;20032;-78
2021/10/23 09:22:09;;;;;;;12.50;5.18;;;15.10;50.80;;;;;;5074853;28;20028;-76
2021/10/23 09:24:34;;;;;;;9.70;5.15;;;15.00;50.80;;;;;;5057090;28;20024;-73
2021/10/23 09:27:15;;;;;;;9.80;5.38;;;14.90;51.20;;;;;;5056901;28;20065;-75
2021/10/23 09:29:41;;;;;;;12.63;6.03;;;14.80;51.40;;;;;;5057371;28;20070;-76
2021/10/23 09:32:11;;;;;;;10.23;6.10;;;14.80;51.40;;;;;;5073393;28;20029;-78
2021/10/23 09:34:37;;;;;;;15.23;7.28;;;14.80;51.60;;;;;;5057034;28;20028;-76
2021/10/23 09:37:04;;;;;;;11.98;7.10;;;14.80;51.80;;;;;;5090519;28;20032;-77
2021/10/23 09:39:32;;;;;;;14.27;7.90;;;14.90;51.80;;;;;;5074934;28;20043;-78
2021/10/23 09:42:08;;;;;;;12.20;5.95;;;15.00;51.60;;;;;;5056858;28;20024;-76
2021/10/23 09:44:39;;;;;;;10.45;5.80;;;15.10;51.20;;;;;;5056766;28;20079;-76
2021/10/23 09:47:05;;;;;;;12.57;6.00;;;15.20;50.70;;;;;;5056765;28;20041;-76
2021/10/23 09:49:31;;;;;;;15.48;6.80;;;15.30;50.60;;;;;;5058980;28;20494;-78
2021/10/23 09:52:08;;;;;;;11.45;6.13;;;15.40;50.60;;;;;;5089901;28;20036;-75
2021/10/23 09:54:36;;;;;;;10.13;5.20;;;15.70;50.50;;;;;;5079074;28;20048;-75
2021/10/23 09:57:09;;;;;;;11.98;5.40;;;16.10;49.90;;;;;;5067234;28;20052;-76
2021/10/23 09:59:38;;;;;;;10.55;5.10;;;16.50;48.50;;;;;;5056472;28;20024;-77
2021/10/23 10:02:06;;;;;;;10.85;5.47;;;16.60;48.50;;;;;;5074395;28;20101;-77
2021/10/23 10:04:32;;;;;;;8.95;5.10;;;16.80;47.90;;;;;;5056252;28;20036;-77
2021/10/23 10:06:59;;;;;;;11.30;4.40;;;17.00;47.40;;;;;;5056252;28;20067;-73
2021/10/23 10:09:25;;;;;;;10.95;5.70;;;17.00;46.90;;;;;;5074586;28;20040;-77
2021/10/23 10:11:54;;;;;;;10.43;5.15;;;16.80;46.90;;;;;;5073937;28;20035;-76
2021/10/23 10:14:23;;;;;;;10.43;5.72;;;16.60;47.20;;;;;;5056071;28;20491;-76
2021/10/23 10:16:50;;;;;;;11.15;5.82;;;16.60;47.60;;;;;;5073722;28;20099;-76
2021/10/23 10:19:19;;;;;;;13.38;6.10;;;16.50;47.60;;;;;;5074256;28;20029;-76
2021/10/23 10:21:47;;;;;;;11.38;5.93;;;16.40;47.70;;;;;;5074081;28;20067;-76
2021/10/23 10:24:25;;;;;;;13.45;6.10;;;16.20;48.00;;;;;;5073811;28;20024;-76
2021/10/23 10:27:04;;;;;;;15.02;5.45;;;16.00;48.20;;;;;;5056233;28;20119;-76
2021/10/23 10:29:52;;;;;;;11.63;6.05;;;15.90;48.80;;;;;;5072333;28;20459;-76
2021/10/23 10:32:50;;;;;;;11.07;5.32;;;15.90;49.30;;;;;;5089104;28;20474;-76
2021/10/23 10:43:17;;;;;;;14.52;6.78;;;18.30;46.90;;;;;;5074096;28;20455;-74
2021/10/23 10:45:51;;;;;;;10.88;5.28;;;18.70;45.80;;;;;;5055562;28;20021;-76
2021/10/23 10:48:21;;;;;;;10.63;5.47;;;18.90;45.30;;;;;;5089217;28;20021;-76
2021/10/23 10:51:00;;;;;;;7.75;5.00;;;19.20;44.80;;;;;;5089318;28;20466;-76
2021/10/23 10:53:28;;;;;;;12.02;6.10;;;20.10;44.10;;;;;;5073777;28;20490;-74
2021/10/23 10:55:59;;;;;;;12.10;6.00;;;21.10;42.80;;;;;;5093802;28;20070;-77
2021/10/23 10:58:43;;;;;;;15.25;6.13;;;21.40;41.00;;;;;;5073450;28;20032;-78
2021/10/23 11:01:09;;;;;;;11.63;5.28;;;21.20;40.90;;;;;;5073432;28;20024;-78
2021/10/23 11:03:43;;;;;;;11.02;6.00;;;20.90;41.50;;;;;;5073553;28;20070;-77
2021/10/23 11:06:30;;;;;;;13.85;6.88;;;20.60;41.80;;;;;;5073641;28;20081;-76
2021/10/23 11:09:11;;;;;;;13.75;7.60;;;20.20;42.20;;;;;;5088752;28;20147;-75
2021/10/23 11:11:49;;;;;;;12.82;6.15;;;19.80;42.50;;;;;;5088358;28;20375;-75
2021/10/23 11:17:02;;;;;;;15.70;6.55;;;19.70;43.30;;;;;;5073062;28;20029;-77
2021/10/23 11:19:37;;;;;;;12.65;6.75;;;20.20;42.60;;;;;;5071758;28;20421;-77
2021/10/23 11:22:23;;;;;;;12.70;6.68;;;20.20;41.90;;;;;;5072964;28;20024;-76
2021/10/23 11:24:50;;;;;;;;;;;19.80;42.80;;;;;;5072973;28;20379;-74
2021/10/23 11:27:32;;;;;;;12.43;5.82;;;20.00;43.30;;;;;;5072929;28;19905;-74
2021/10/23 11:30:08;;;;;;;14.80;8.85;;;20.70;41.90;;;;;;5072770;28;20036;-75
2021/10/23 11:32:59;;;;;;;12.45;5.80;;;21.50;41.00;;;;;;5088428;28;20028;-76
2021/10/23 11:35:47;;;;;;;10.05;3.80;;;22.40;39.90;;;;;;5054522;28;20047;-75
2021/10/23 11:38:24;;;;;;;11.02;4.40;;;23.20;38.60;;;;;;5054546;28;20107;-76
2021/10/23 11:40:58;;;;;;;10.00;4.80;;;23.50;37.10;;;;;;5073140;28;20032;-76
2021/10/23 11:43:27;;;;;;;12.48;4.07;;;23.10;37.10;;;;;;5055160;28;20020;-76
2021/10/23 11:45:53;;;;;;;13.25;4.90;;;22.60;37.10;;;;;;5073023;28;20036;-76
2021/10/23 11:48:19;;;;;;;7.72;4.00;;;22.50;37.70;;;;;;5072582;28;20021;-77
2021/10/23 11:50:52;;;;;;;9.63;3.88;;;22.60;37.60;;;;;;5072861;28;20033;-77
2021/10/23 11:53:29;;;;;;;9.73;3.72;;;23.00;37.20;;;;;;5054821;28;20021;-77
2021/10/23 11:56:03;;;;;;;7.95;3.63;;;23.10;36.60;;;;;;5077064;28;20370;-75
2021/10/23 11:58:32;;;;;;;7.93;3.40;;;23.20;36.50;;;;;;5072740;28;20025;-77
2021/10/23 12:00:58;;;;;;;9.15;3.40;;;23.20;36.70;;;;;;5072589;28;20119;-76
2021/10/23 12:03:29;;;;;;;7.63;3.47;;;23.20;36.50;;;;;;5088209;28;20554;-76
2021/10/23 12:05:56;;;;;;;12.32;4.05;;;23.30;36.20;;;;;;5072923;28;20031;-76
2021/10/23 12:08:30;;;;;;;9.13;3.38;;;23.30;36.30;;;;;;5051184;28;20491;-77
2021/10/23 12:11:14;;;;;;;7.70;3.10;;;23.20;36.40;;;;;;5051348;28;20033;-76
2021/10/23 12:13:59;;;;;;;9.00;3.10;;;23.10;36.20;;;;;;5052508;28;20095;-75
2021/10/23 12:16:33;;;;;;;6.78;2.72;;;22.60;36.50;;;;;;5051296;28;20033;-75
2021/10/23 12:19:39;;;;;;;6.50;3.13;;;22.50;36.70;;;;;;5052546;28;20021;-77
2021/10/23 12:22:04;;;;;;;7.43;3.00;;;22.00;36.90;;;;;;5041493;28;20025;-76
2021/10/23 12:24:40;;;;;;;12.25;4.20;;;21.50;37.20;;;;;;5052657;28;20025;-76
2021/10/23 12:27:11;;;;;;;9.10;4.00;;;21.10;37.30;;;;;;5051274;28;20364;-76
2021/10/23 12:29:47;;;;;;;6.43;3.20;;;20.70;37.70;;;;;;5051132;28;20457;-76
2021/10/23 12:32:16;;;;;;;7.28;3.42;;;20.30;38.20;;;;;;5052184;28;20036;-76
2021/10/23 12:34:50;;;;;;;6.13;2.80;;;20.00;38.70;;;;;;5053542;28;20021;-75
2021/10/23 12:37:40;;;;;;;4.38;2.30;;;19.60;38.90;;;;;;5055138;28;20032;-75
2021/10/23 12:40:28;;;;;;;7.80;2.92;;;19.20;39.40;;;;;;5054778;28;20047;-76
2021/10/23 12:43:03;;;;;;;10.23;3.88;;;18.70;40.10;;;;;;5056107;28;20017;-76
2021/10/23 12:45:37;;;;;;;9.18;3.38;;;18.40;40.50;;;;;;5056096;28;20468;-76
2021/10/23 12:48:09;;;;;;;10.45;3.10;;;18.00;41.20;;;;;;5054561;28;20025;-76
2021/10/23 12:50:36;;;;;;;8.10;3.08;;;17.80;41.60;;;;;;5055662;28;20093;-77